Enter the Airport ICAO Code

Search by Airport or City

Current Weather

LFMN | Nice Côte d'Azur Airport

Nice, Provence-Alpes-Côte d'Azur, France

Last Update 25 Minutes Ago

Mostly Cloudy Sky

Temperature of 26 ºC

Light to Moderate Winds from East

Temperature

26 ºC

Dew Point Temperature

18 ºC

Relative Humidity

61.57 %

Wind Direction

East (080º, Ranging from 050º to 110º)

Wind Velocity

9 km/h (05 kt)

Gusts

None

Visibility

Greater than 10 Kilometers

Sea Level Pressure

1019 hPa (Hectopascals)

Layers of Clouds

5% to 30% of Sky Covered from 914 mts (3000 ft) Above Ground Level.

5% to 30% of Sky Covered with Towering Cumulus from 1524 mts (5000 ft) Above Ground Level.

30% to 60% of Sky Covered from 2225 mts (7300 ft) Above Ground Level.

60% to 90% of Sky Covered from 3353 mts (11000 ft) Above Ground Level.

METAR LFMN 131130Z 08005KT 050V110 9999 FEW030 FEW050TCU SCT073 BKN110 26/18 Q1019 NOSIG

Weather Forecast

LFMN | Nice Côte d'Azur Airport

Nice, Provence-Alpes-Côte d'Azur, France

Forecast valid for the next 27 Hours

From now on it is expected:

Clear Sky

Moderate Winds from SouthEast

From now on it is expected 6 hours with intermittent periods of:

Light Thunderstorm with Rain

In 6 to 8 hours it is expected the begining of:

Light to Moderate Winds from Variable Directions

Maximum Temperature

No Data

Minimum Temperature

No Data

TAF LFMN 131025Z 1310/1415 12010KT CAVOK TEMPO 1310/1318 -TSRA SCT050CB BECMG 1318/1320 VRB05KT